< < Back
Terminal Aerodrome Forecast


Current Version              Previous Versions:   1  2  3  4  5  6  7  8  9  

Terminal Aerodrome Forecast

831
FTUS42 KMLB 192300
TAFDAB
TAF
KDAB 192339Z 2000/2024 01008KT P6SM FEW035 FEW100 SCT250
     FM200300 VRB03KT P6SM BKN035
     FM201500 08006KT P6SM SCT040 BKN250=

Latest METAR

436
SAUS80 KWBC 210300
MTRDAB
METAR KDAB 210253Z 00000KT 10SM FEW029 BKN130 BKN250 22/21 A2998 RMK AO2
SLP152 T02170206 50001


USA.gov is the U.S. government's official web portal to all federal, state and local government web resources and services.